sensor_id;sensor_type;location;lat;lon;timestamp;P1;durP1;ratioP1;P2;durP2;ratioP2
22780;SDS011;11557;50.884;4.322;2023-12-20T00:00:35;11.57;;;1.80;;
22780;SDS011;11557;50.884;4.322;2023-12-20T00:03:02;16.35;;;2.88;;
22780;SDS011;11557;50.884;4.322;2023-12-20T00:05:29;11.10;;;1.90;;
22780;SDS011;11557;50.884;4.322;2023-12-20T00:07:57;16.17;;;2.20;;
22780;SDS011;11557;50.884;4.322;2023-12-20T00:10:22;8.20;;;1.90;;
22780;SDS011;11557;50.884;4.322;2023-12-20T00:12:48;9.82;;;2.42;;
22780;SDS011;11557;50.884;4.322;2023-12-20T00:15:13;13.95;;;2.10;;
22780;SDS011;11557;50.884;4.322;2023-12-20T00:17:39;12.45;;;3.00;;
22780;SDS011;11557;50.884;4.322;2023-12-20T00:20:05;15.73;;;2.17;;
22780;SDS011;11557;50.884;4.322;2023-12-20T00:22:31;11.57;;;1.83;;
22780;SDS011;11557;50.884;4.322;2023-12-20T00:24:57;15.43;;;2.67;;
22780;SDS011;11557;50.884;4.322;2023-12-20T00:27:22;11.07;;;2.55;;
22780;SDS011;11557;50.884;4.322;2023-12-20T00:29:48;11.88;;;1.85;;
22780;SDS011;11557;50.884;4.322;2023-12-20T00:32:15;12.88;;;2.80;;
22780;SDS011;11557;50.884;4.322;2023-12-20T00:34:41;10.15;;;2.45;;
22780;SDS011;11557;50.884;4.322;2023-12-20T00:37:08;13.75;;;2.55;;
22780;SDS011;11557;50.884;4.322;2023-12-20T00:39:33;14.52;;;2.38;;
22780;SDS011;11557;50.884;4.322;2023-12-20T00:41:59;15.40;;;2.38;;
22780;SDS011;11557;50.884;4.322;2023-12-20T00:44:24;10.60;;;2.20;;
22780;SDS011;11557;50.884;4.322;2023-12-20T00:46:50;7.45;;;1.90;;
22780;SDS011;11557;50.884;4.322;2023-12-20T00:49:16;12.07;;;2.45;;
22780;SDS011;11557;50.884;4.322;2023-12-20T00:51:42;23.52;;;2.35;;
22780;SDS011;11557;50.884;4.322;2023-12-20T00:54:07;18.00;;;2.60;;
22780;SDS011;11557;50.884;4.322;2023-12-20T00:56:34;13.52;;;2.60;;
22780;SDS011;11557;50.884;4.322;2023-12-20T00:59:00;7.20;;;2.13;;
22780;SDS011;11557;50.884;4.322;2023-12-20T01:01:25;12.32;;;2.80;;
22780;SDS011;11557;50.884;4.322;2023-12-20T01:03:51;8.43;;;2.38;;
22780;SDS011;11557;50.884;4.322;2023-12-20T01:06:17;14.70;;;2.70;;
22780;SDS011;11557;50.884;4.322;2023-12-20T01:08:43;11.77;;;3.00;;
22780;SDS011;11557;50.884;4.322;2023-12-20T01:11:09;13.85;;;2.13;;
22780;SDS011;11557;50.884;4.322;2023-12-20T01:13:34;10.05;;;2.17;;
22780;SDS011;11557;50.884;4.322;2023-12-20T01:16:00;6.97;;;2.38;;
22780;SDS011;11557;50.884;4.322;2023-12-20T01:18:26;17.25;;;2.92;;
22780;SDS011;11557;50.884;4.322;2023-12-20T01:20:52;11.55;;;3.30;;
22780;SDS011;11557;50.884;4.322;2023-12-20T01:23:17;14.10;;;2.92;;
22780;SDS011;11557;50.884;4.322;2023-12-20T01:25:43;19.05;;;3.30;;
22780;SDS011;11557;50.884;4.322;2023-12-20T01:28:09;15.13;;;2.63;;
22780;SDS011;11557;50.884;4.322;2023-12-20T01:30:34;14.77;;;2.53;;
22780;SDS011;11557;50.884;4.322;2023-12-20T01:33:00;15.75;;;3.20;;
22780;SDS011;11557;50.884;4.322;2023-12-20T01:35:26;18.42;;;3.15;;
22780;SDS011;11557;50.884;4.322;2023-12-20T01:37:52;16.42;;;3.00;;
22780;SDS011;11557;50.884;4.322;2023-12-20T01:40:21;20.15;;;3.50;;
22780;SDS011;11557;50.884;4.322;2023-12-20T01:42:47;16.55;;;3.83;;
22780;SDS011;11557;50.884;4.322;2023-12-20T01:45:22;9.77;;;2.83;;
22780;SDS011;11557;50.884;4.322;2023-12-20T01:47:48;14.23;;;3.25;;
22780;SDS011;11557;50.884;4.322;2023-12-20T01:50:13;14.85;;;4.20;;
22780;SDS011;11557;50.884;4.322;2023-12-20T01:52:39;17.02;;;3.17;;
22780;SDS011;11557;50.884;4.322;2023-12-20T01:55:06;13.40;;;3.25;;
22780;SDS011;11557;50.884;4.322;2023-12-20T01:57:38;16.98;;;3.00;;
22780;SDS011;11557;50.884;4.322;2023-12-20T02:00:08;23.52;;;4.22;;
22780;SDS011;11557;50.884;4.322;2023-12-20T02:02:36;8.07;;;3.33;;
22780;SDS011;11557;50.884;4.322;2023-12-20T02:05:05;14.65;;;2.60;;
22780;SDS011;11557;50.884;4.322;2023-12-20T02:07:35;13.45;;;3.28;;
22780;SDS011;11557;50.884;4.322;2023-12-20T02:10:01;15.02;;;3.60;;
22780;SDS011;11557;50.884;4.322;2023-12-20T02:12:28;14.90;;;3.30;;
22780;SDS011;11557;50.884;4.322;2023-12-20T02:14:54;21.05;;;4.40;;
22780;SDS011;11557;50.884;4.322;2023-12-20T02:17:20;12.80;;;3.78;;
22780;SDS011;11557;50.884;4.322;2023-12-20T02:19:46;14.63;;;3.35;;
22780;SDS011;11557;50.884;4.322;2023-12-20T02:22:12;15.60;;;3.17;;
22780;SDS011;11557;50.884;4.322;2023-12-20T02:24:38;25.00;;;3.75;;
22780;SDS011;11557;50.884;4.322;2023-12-20T02:27:05;16.02;;;3.33;;
22780;SDS011;11557;50.884;4.322;2023-12-20T02:29:32;18.98;;;3.20;;
22780;SDS011;11557;50.884;4.322;2023-12-20T02:31:58;15.00;;;3.60;;
22780;SDS011;11557;50.884;4.322;2023-12-20T02:34:24;12.07;;;2.88;;
22780;SDS011;11557;50.884;4.322;2023-12-20T02:36:50;14.57;;;3.45;;
22780;SDS011;11557;50.884;4.322;2023-12-20T02:39:15;15.70;;;3.63;;
22780;SDS011;11557;50.884;4.322;2023-12-20T02:41:41;17.17;;;3.47;;
22780;SDS011;11557;50.884;4.322;2023-12-20T02:44:07;14.75;;;3.08;;
22780;SDS011;11557;50.884;4.322;2023-12-20T02:46:33;9.65;;;2.78;;
22780;SDS011;11557;50.884;4.322;2023-12-20T02:48:58;14.23;;;3.55;;
22780;SDS011;11557;50.884;4.322;2023-12-20T02:51:24;13.32;;;3.63;;
22780;SDS011;11557;50.884;4.322;2023-12-20T02:53:49;13.68;;;4.32;;
22780;SDS011;11557;50.884;4.322;2023-12-20T02:56:15;18.67;;;3.47;;
22780;SDS011;11557;50.884;4.322;2023-12-20T02:58:41;18.60;;;3.45;;
22780;SDS011;11557;50.884;4.322;2023-12-20T03:01:06;22.00;;;4.00;;
22780;SDS011;11557;50.884;4.322;2023-12-20T03:03:32;20.80;;;3.85;;
22780;SDS011;11557;50.884;4.322;2023-12-20T03:05:58;19.42;;;4.20;;
22780;SDS011;11557;50.884;4.322;2023-12-20T03:08:23;15.13;;;3.80;;
22780;SDS011;11557;50.884;4.322;2023-12-20T03:10:49;15.23;;;3.90;;
22780;SDS011;11557;50.884;4.322;2023-12-20T03:13:15;20.65;;;4.13;;
22780;SDS011;11557;50.884;4.322;2023-12-20T03:15:40;15.98;;;3.88;;
22780;SDS011;11557;50.884;4.322;2023-12-20T03:18:06;17.65;;;4.00;;
22780;SDS011;11557;50.884;4.322;2023-12-20T03:20:31;20.92;;;4.30;;
22780;SDS011;11557;50.884;4.322;2023-12-20T03:22:59;15.63;;;4.22;;
22780;SDS011;11557;50.884;4.322;2023-12-20T03:25:25;11.55;;;3.95;;
22780;SDS011;11557;50.884;4.322;2023-12-20T03:27:52;22.13;;;4.78;;
22780;SDS011;11557;50.884;4.322;2023-12-20T03:30:17;16.55;;;4.40;;
22780;SDS011;11557;50.884;4.322;2023-12-20T03:32:43;12.48;;;3.75;;
22780;SDS011;11557;50.884;4.322;2023-12-20T03:35:09;12.05;;;3.80;;
22780;SDS011;11557;50.884;4.322;2023-12-20T03:37:35;12.20;;;4.15;;
22780;SDS011;11557;50.884;4.322;2023-12-20T03:40:01;18.48;;;3.70;;
22780;SDS011;11557;50.884;4.322;2023-12-20T03:42:27;12.77;;;4.00;;
22780;SDS011;11557;50.884;4.322;2023-12-20T03:44:52;23.23;;;4.15;;
22780;SDS011;11557;50.884;4.322;2023-12-20T03:47:18;23.55;;;4.03;;
22780;SDS011;11557;50.884;4.322;2023-12-20T03:49:43;16.50;;;3.40;;
22780;SDS011;11557;50.884;4.322;2023-12-20T03:52:09;22.48;;;3.65;;
22780;SDS011;11557;50.884;4.322;2023-12-20T03:54:35;16.13;;;2.97;;
22780;SDS011;11557;50.884;4.322;2023-12-20T03:57:01;14.68;;;3.15;;
22780;SDS011;11557;50.884;4.322;2023-12-20T03:59:26;17.55;;;3.88;;
22780;SDS011;11557;50.884;4.322;2023-12-20T04:01:52;15.57;;;3.25;;
22780;SDS011;11557;50.884;4.322;2023-12-20T04:04:18;14.52;;;3.42;;
22780;SDS011;11557;50.884;4.322;2023-12-20T04:06:44;14.13;;;3.08;;
22780;SDS011;11557;50.884;4.322;2023-12-20T04:09:10;14.88;;;4.10;;
22780;SDS011;11557;50.884;4.322;2023-12-20T04:11:38;22.55;;;3.22;;
22780;SDS011;11557;50.884;4.322;2023-12-20T04:14:04;19.27;;;3.47;;
22780;SDS011;11557;50.884;4.322;2023-12-20T04:16:30;14.70;;;2.78;;
22780;SDS011;11557;50.884;4.322;2023-12-20T04:18:55;14.68;;;2.97;;
22780;SDS011;11557;50.884;4.322;2023-12-20T04:21:21;17.67;;;3.45;;
22780;SDS011;11557;50.884;4.322;2023-12-20T04:23:47;16.00;;;3.22;;
22780;SDS011;11557;50.884;4.322;2023-12-20T04:26:12;16.90;;;3.40;;
22780;SDS011;11557;50.884;4.322;2023-12-20T04:28:38;20.05;;;3.80;;
22780;SDS011;11557;50.884;4.322;2023-12-20T04:31:03;10.07;;;3.20;;
22780;SDS011;11557;50.884;4.322;2023-12-20T04:33:29;16.10;;;3.63;;
22780;SDS011;11557;50.884;4.322;2023-12-20T04:35:55;18.90;;;3.50;;
22780;SDS011;11557;50.884;4.322;2023-12-20T04:38:20;19.17;;;3.47;;
22780;SDS011;11557;50.884;4.322;2023-12-20T04:40:46;15.25;;;3.53;;
22780;SDS011;11557;50.884;4.322;2023-12-20T04:43:13;18.83;;;3.50;;
22780;SDS011;11557;50.884;4.322;2023-12-20T04:45:38;16.27;;;3.05;;
22780;SDS011;11557;50.884;4.322;2023-12-20T04:48:04;15.13;;;3.08;;
22780;SDS011;11557;50.884;4.322;2023-12-20T04:50:30;20.05;;;3.40;;
22780;SDS011;11557;50.884;4.322;2023-12-20T04:52:56;11.38;;;3.13;;
22780;SDS011;11557;50.884;4.322;2023-12-20T04:55:21;17.38;;;3.60;;
22780;SDS011;11557;50.884;4.322;2023-12-20T04:57:47;13.60;;;4.10;;
22780;SDS011;11557;50.884;4.322;2023-12-20T05:00:12;15.65;;;5.05;;
22780;SDS011;11557;50.884;4.322;2023-12-20T05:02:40;23.27;;;4.40;;
22780;SDS011;11557;50.884;4.322;2023-12-20T05:05:06;16.50;;;3.83;;
22780;SDS011;11557;50.884;4.322;2023-12-20T05:07:32;21.65;;;3.78;;
22780;SDS011;11557;50.884;4.322;2023-12-20T05:09:58;19.30;;;3.55;;
22780;SDS011;11557;50.884;4.322;2023-12-20T05:12:24;15.93;;;3.70;;
22780;SDS011;11557;50.884;4.322;2023-12-20T05:14:51;17.30;;;3.22;;
22780;SDS011;11557;50.884;4.322;2023-12-20T05:17:17;16.30;;;3.35;;
22780;SDS011;11557;50.884;4.322;2023-12-20T05:19:43;17.17;;;3.55;;
22780;SDS011;11557;50.884;4.322;2023-12-20T05:22:08;14.15;;;2.95;;
22780;SDS011;11557;50.884;4.322;2023-12-20T05:24:34;16.08;;;3.28;;
22780;SDS011;11557;50.884;4.322;2023-12-20T05:27:00;14.23;;;3.33;;
22780;SDS011;11557;50.884;4.322;2023-12-20T05:29:25;14.23;;;3.08;;
22780;SDS011;11557;50.884;4.322;2023-12-20T05:31:51;15.27;;;3.55;;
22780;SDS011;11557;50.884;4.322;2023-12-20T05:34:17;23.65;;;3.65;;
22780;SDS011;11557;50.884;4.322;2023-12-20T05:36:42;13.35;;;3.17;;
22780;SDS011;11557;50.884;4.322;2023-12-20T05:39:08;11.85;;;3.15;;
22780;SDS011;11557;50.884;4.322;2023-12-20T05:41:33;22.00;;;3.53;;
22780;SDS011;11557;50.884;4.322;2023-12-20T05:43:59;16.05;;;2.85;;
22780;SDS011;11557;50.884;4.322;2023-12-20T05:46:25;15.73;;;3.20;;
22780;SDS011;11557;50.884;4.322;2023-12-20T05:48:51;14.32;;;3.65;;
22780;SDS011;11557;50.884;4.322;2023-12-20T05:51:17;18.65;;;4.00;;
22780;SDS011;11557;50.884;4.322;2023-12-20T05:53:43;15.80;;;3.00;;
22780;SDS011;11557;50.884;4.322;2023-12-20T05:56:09;12.73;;;3.10;;
22780;SDS011;11557;50.884;4.322;2023-12-20T05:58:35;15.00;;;3.38;;
22780;SDS011;11557;50.884;4.322;2023-12-20T06:01:04;14.20;;;3.15;;
22780;SDS011;11557;50.884;4.322;2023-12-20T06:03:30;10.93;;;3.17;;
22780;SDS011;11557;50.884;4.322;2023-12-20T06:05:56;16.45;;;3.70;;
22780;SDS011;11557;50.884;4.322;2023-12-20T06:08:22;12.95;;;2.95;;
22780;SDS011;11557;50.884;4.322;2023-12-20T06:10:48;13.75;;;2.95;;
22780;SDS011;11557;50.884;4.322;2023-12-20T06:13:14;20.25;;;4.05;;
22780;SDS011;11557;50.884;4.322;2023-12-20T06:15:39;18.30;;;3.90;;
22780;SDS011;11557;50.884;4.322;2023-12-20T06:18:05;19.13;;;2.97;;
22780;SDS011;11557;50.884;4.322;2023-12-20T06:20:32;18.92;;;3.55;;
22780;SDS011;11557;50.884;4.322;2023-12-20T06:22:58;16.80;;;2.53;;
22780;SDS011;11557;50.884;4.322;2023-12-20T06:25:23;18.50;;;3.30;;
22780;SDS011;11557;50.884;4.322;2023-12-20T06:27:49;14.10;;;2.97;;
22780;SDS011;11557;50.884;4.322;2023-12-20T06:30:15;17.02;;;3.25;;
22780;SDS011;11557;50.884;4.322;2023-12-20T06:32:41;18.67;;;3.13;;
22780;SDS011;11557;50.884;4.322;2023-12-20T06:35:08;10.32;;;2.90;;
22780;SDS011;11557;50.884;4.322;2023-12-20T06:37:34;16.08;;;2.78;;
22780;SDS011;11557;50.884;4.322;2023-12-20T06:40:00;18.10;;;3.17;;
22780;SDS011;11557;50.884;4.322;2023-12-20T06:42:26;21.10;;;3.78;;
22780;SDS011;11557;50.884;4.322;2023-12-20T06:44:51;12.70;;;2.97;;
22780;SDS011;11557;50.884;4.322;2023-12-20T06:47:17;16.90;;;3.03;;
22780;SDS011;11557;50.884;4.322;2023-12-20T06:49:43;13.55;;;3.60;;
22780;SDS011;11557;50.884;4.322;2023-12-20T06:52:08;13.00;;;2.72;;
22780;SDS011;11557;50.884;4.322;2023-12-20T06:54:34;11.63;;;2.95;;
22780;SDS011;11557;50.884;4.322;2023-12-20T06:57:00;14.35;;;2.85;;
22780;SDS011;11557;50.884;4.322;2023-12-20T06:59:25;12.40;;;2.70;;
22780;SDS011;11557;50.884;4.322;2023-12-20T07:01:51;15.38;;;3.50;;
22780;SDS011;11557;50.884;4.322;2023-12-20T07:04:17;16.70;;;3.53;;
22780;SDS011;11557;50.884;4.322;2023-12-20T07:06:45;13.82;;;2.83;;
22780;SDS011;11557;50.884;4.322;2023-12-20T07:09:11;17.80;;;2.80;;
22780;SDS011;11557;50.884;4.322;2023-12-20T07:11:38;15.93;;;2.90;;
22780;SDS011;11557;50.884;4.322;2023-12-20T07:14:04;16.83;;;2.58;;
22780;SDS011;11557;50.884;4.322;2023-12-20T07:16:29;18.88;;;3.63;;
22780;SDS011;11557;50.884;4.322;2023-12-20T07:18:55;14.65;;;2.90;;
22780;SDS011;11557;50.884;4.322;2023-12-20T07:21:22;17.40;;;3.65;;
22780;SDS011;11557;50.884;4.322;2023-12-20T07:23:47;17.25;;;4.03;;
22780;SDS011;11557;50.884;4.322;2023-12-20T07:26:13;11.25;;;4.00;;
22780;SDS011;11557;50.884;4.322;2023-12-20T07:28:40;14.80;;;3.13;;
22780;SDS011;11557;50.884;4.322;2023-12-20T07:31:05;12.63;;;3.03;;
22780;SDS011;11557;50.884;4.322;2023-12-20T07:33:31;13.10;;;2.88;;
22780;SDS011;11557;50.884;4.322;2023-12-20T07:35:57;25.90;;;6.45;;
22780;SDS011;11557;50.884;4.322;2023-12-20T07:38:24;33.25;;;9.55;;
22780;SDS011;11557;50.884;4.322;2023-12-20T07:40:50;17.48;;;3.67;;
22780;SDS011;11557;50.884;4.322;2023-12-20T07:43:15;27.40;;;8.07;;
22780;SDS011;11557;50.884;4.322;2023-12-20T07:45:41;21.30;;;6.18;;
22780;SDS011;11557;50.884;4.322;2023-12-20T07:48:07;47.92;;;15.95;;
22780;SDS011;11557;50.884;4.322;2023-12-20T07:50:33;40.13;;;9.80;;
22780;SDS011;11557;50.884;4.322;2023-12-20T07:52:59;53.47;;;15.40;;
22780;SDS011;11557;50.884;4.322;2023-12-20T07:55:26;56.58;;;16.20;;
22780;SDS011;11557;50.884;4.322;2023-12-20T07:57:52;75.47;;;23.95;;
22780;SDS011;11557;50.884;4.322;2023-12-20T08:00:18;71.13;;;20.95;;
22780;SDS011;11557;50.884;4.322;2023-12-20T08:02:44;64.00;;;22.90;;
22780;SDS011;11557;50.884;4.322;2023-12-20T08:05:10;92.63;;;29.92;;
22780;SDS011;11557;50.884;4.322;2023-12-20T08:07:36;116.07;;;36.15;;
22780;SDS011;11557;50.884;4.322;2023-12-20T08:10:01;59.88;;;20.58;;
22780;SDS011;11557;50.884;4.322;2023-12-20T08:12:27;23.50;;;5.72;;
22780;SDS011;11557;50.884;4.322;2023-12-20T08:14:53;74.35;;;22.05;;
22780;SDS011;11557;50.884;4.322;2023-12-20T08:17:19;53.72;;;18.75;;
22780;SDS011;11557;50.884;4.322;2023-12-20T08:19:45;23.08;;;4.10;;
22780;SDS011;11557;50.884;4.322;2023-12-20T08:22:11;20.05;;;4.10;;
22780;SDS011;11557;50.884;4.322;2023-12-20T08:24:36;13.02;;;3.08;;
22780;SDS011;11557;50.884;4.322;2023-12-20T08:27:03;17.55;;;3.63;;
22780;SDS011;11557;50.884;4.322;2023-12-20T08:29:29;17.85;;;3.75;;
22780;SDS011;11557;50.884;4.322;2023-12-20T08:31:55;14.23;;;2.72;;
22780;SDS011;11557;50.884;4.322;2023-12-20T08:34:21;20.33;;;3.10;;
22780;SDS011;11557;50.884;4.322;2023-12-20T08:36:48;15.25;;;2.42;;
22780;SDS011;11557;50.884;4.322;2023-12-20T08:39:15;13.38;;;2.25;;
22780;SDS011;11557;50.884;4.322;2023-12-20T08:41:40;14.77;;;3.40;;
22780;SDS011;11557;50.884;4.322;2023-12-20T08:44:06;12.77;;;3.20;;
22780;SDS011;11557;50.884;4.322;2023-12-20T08:46:32;13.30;;;2.55;;
22780;SDS011;11557;50.884;4.322;2023-12-20T08:48:57;16.23;;;3.95;;
22780;SDS011;11557;50.884;4.322;2023-12-20T08:51:23;15.20;;;3.35;;
22780;SDS011;11557;50.884;4.322;2023-12-20T08:53:50;25.95;;;3.00;;
22780;SDS011;11557;50.884;4.322;2023-12-20T08:56:16;23.67;;;3.67;;
22780;SDS011;11557;50.884;4.322;2023-12-20T08:58:43;14.95;;;4.05;;
22780;SDS011;11557;50.884;4.322;2023-12-20T09:01:09;15.38;;;2.70;;
22780;SDS011;11557;50.884;4.322;2023-12-20T09:03:35;17.27;;;3.20;;
22780;SDS011;11557;50.884;4.322;2023-12-20T09:06:00;15.60;;;3.13;;
22780;SDS011;11557;50.884;4.322;2023-12-20T09:08:26;23.23;;;3.25;;
22780;SDS011;11557;50.884;4.322;2023-12-20T09:10:51;12.15;;;3.13;;
22780;SDS011;11557;50.884;4.322;2023-12-20T09:13:17;14.70;;;2.55;;
22780;SDS011;11557;50.884;4.322;2023-12-20T09:15:43;19.42;;;2.75;;
22780;SDS011;11557;50.884;4.322;2023-12-20T09:18:08;14.20;;;3.47;;
22780;SDS011;11557;50.884;4.322;2023-12-20T09:20:34;20.83;;;3.05;;
22780;SDS011;11557;50.884;4.322;2023-12-20T09:23:00;23.00;;;3.92;;
22780;SDS011;11557;50.884;4.322;2023-12-20T09:25:25;13.52;;;3.17;;
22780;SDS011;11557;50.884;4.322;2023-12-20T09:27:51;15.10;;;2.78;;
22780;SDS011;11557;50.884;4.322;2023-12-20T09:30:17;18.15;;;3.45;;
22780;SDS011;11557;50.884;4.322;2023-12-20T09:33:12;18.33;;;3.13;;
22780;SDS011;11557;50.884;4.322;2023-12-20T09:35:39;13.48;;;2.78;;
22780;SDS011;11557;50.884;4.322;2023-12-20T09:38:05;17.23;;;3.03;;
22780;SDS011;11557;50.884;4.322;2023-12-20T09:40:30;18.45;;;3.25;;
22780;SDS011;11557;50.884;4.322;2023-12-20T09:43:04;10.32;;;2.72;;
22780;SDS011;11557;50.884;4.322;2023-12-20T09:45:36;20.92;;;3.85;;
22780;SDS011;11557;50.884;4.322;2023-12-20T09:48:03;18.85;;;3.20;;
22780;SDS011;11557;50.884;4.322;2023-12-20T09:50:30;21.58;;;3.10;;
22780;SDS011;11557;50.884;4.322;2023-12-20T09:52:57;15.95;;;2.90;;
22780;SDS011;11557;50.884;4.322;2023-12-20T09:55:25;15.63;;;1.90;;
22780;SDS011;11557;50.884;4.322;2023-12-20T09:57:53;18.30;;;3.22;;
22780;SDS011;11557;50.884;4.322;2023-12-20T10:00:18;15.95;;;2.83;;
22780;SDS011;11557;50.884;4.322;2023-12-20T10:02:55;13.15;;;2.55;;
22780;SDS011;11557;50.884;4.322;2023-12-20T10:05:26;13.90;;;2.42;;
22780;SDS011;11557;50.884;4.322;2023-12-20T10:07:55;15.50;;;2.13;;
22780;SDS011;11557;50.884;4.322;2023-12-20T10:10:21;9.73;;;2.63;;
22780;SDS011;11557;50.884;4.322;2023-12-20T10:15:33;12.70;;;3.10;;
22780;SDS011;11557;50.884;4.322;2023-12-20T10:18:00;12.88;;;2.63;;
22780;SDS011;11557;50.884;4.322;2023-12-20T10:20:26;11.10;;;2.55;;
22780;SDS011;11557;50.884;4.322;2023-12-20T10:22:54;17.17;;;2.65;;
22780;SDS011;11557;50.884;4.322;2023-12-20T10:25:20;11.60;;;2.90;;
22780;SDS011;11557;50.884;4.322;2023-12-20T10:27:47;15.90;;;4.03;;
22780;SDS011;11557;50.884;4.322;2023-12-20T10:30:13;16.83;;;3.90;;
22780;SDS011;11557;50.884;4.322;2023-12-20T10:32:39;20.83;;;5.05;;
22780;SDS011;11557;50.884;4.322;2023-12-20T10:35:06;12.98;;;3.03;;
22780;SDS011;11557;50.884;4.322;2023-12-20T10:37:35;21.42;;;2.75;;
22780;SDS011;11557;50.884;4.322;2023-12-20T10:40:03;15.73;;;3.03;;
22780;SDS011;11557;50.884;4.322;2023-12-20T10:42:30;17.35;;;3.63;;
22780;SDS011;11557;50.884;4.322;2023-12-20T10:44:59;15.63;;;4.03;;
22780;SDS011;11557;50.884;4.322;2023-12-20T10:47:25;16.83;;;3.47;;
22780;SDS011;11557;50.884;4.322;2023-12-20T10:49:54;18.63;;;6.75;;
22780;SDS011;11557;50.884;4.322;2023-12-20T10:52:21;13.40;;;3.13;;
22780;SDS011;11557;50.884;4.322;2023-12-20T10:54:49;23.33;;;5.25;;
22780;SDS011;11557;50.884;4.322;2023-12-20T10:57:15;18.27;;;4.18;;
22780;SDS011;11557;50.884;4.322;2023-12-20T10:59:44;15.80;;;4.32;;
22780;SDS011;11557;50.884;4.322;2023-12-20T11:02:14;18.35;;;4.75;;
22780;SDS011;11557;50.884;4.322;2023-12-20T11:04:56;20.67;;;4.93;;
22780;SDS011;11557;50.884;4.322;2023-12-20T11:07:37;16.58;;;3.53;;
22780;SDS011;11557;50.884;4.322;2023-12-20T11:10:16;21.88;;;4.57;;
22780;SDS011;11557;50.884;4.322;2023-12-20T11:13:00;25.90;;;8.48;;
22780;SDS011;11557;50.884;4.322;2023-12-20T11:15:35;15.23;;;3.90;;
22780;SDS011;11557;50.884;4.322;2023-12-20T11:18:01;21.08;;;4.70;;
22780;SDS011;11557;50.884;4.322;2023-12-20T11:20:39;16.20;;;3.70;;
22780;SDS011;11557;50.884;4.322;2023-12-20T11:23:05;10.02;;;2.88;;
22780;SDS011;11557;50.884;4.322;2023-12-20T11:25:52;15.93;;;3.22;;
22780;SDS011;11557;50.884;4.322;2023-12-20T11:28:22;16.17;;;3.30;;
22780;SDS011;11557;50.884;4.322;2023-12-20T11:30:53;14.48;;;2.20;;
22780;SDS011;11557;50.884;4.322;2023-12-20T11:33:23;13.20;;;3.28;;
22780;SDS011;11557;50.884;4.322;2023-12-20T11:35:50;18.08;;;2.88;;
22780;SDS011;11557;50.884;4.322;2023-12-20T11:38:17;14.80;;;3.35;;
22780;SDS011;11557;50.884;4.322;2023-12-20T11:40:47;12.45;;;2.55;;
22780;SDS011;11557;50.884;4.322;2023-12-20T11:43:29;17.40;;;2.50;;
22780;SDS011;11557;50.884;4.322;2023-12-20T11:45:56;12.68;;;2.50;;
22780;SDS011;11557;50.884;4.322;2023-12-20T11:48:31;12.57;;;3.05;;
22780;SDS011;11557;50.884;4.322;2023-12-20T11:50:57;14.48;;;2.67;;
22780;SDS011;11557;50.884;4.322;2023-12-20T11:53:23;14.93;;;3.20;;
22780;SDS011;11557;50.884;4.322;2023-12-20T11:55:49;9.43;;;2.70;;
22780;SDS011;11557;50.884;4.322;2023-12-20T11:58:15;15.52;;;2.15;;
22780;SDS011;11557;50.884;4.322;2023-12-20T12:00:41;14.68;;;2.47;;
22780;SDS011;11557;50.884;4.322;2023-12-20T12:03:13;16.10;;;2.85;;
22780;SDS011;11557;50.884;4.322;2023-12-20T12:05:40;19.45;;;2.88;;
22780;SDS011;11557;50.884;4.322;2023-12-20T12:08:06;18.85;;;3.70;;
22780;SDS011;11557;50.884;4.322;2023-12-20T12:10:32;13.18;;;2.65;;
22780;SDS011;11557;50.884;4.322;2023-12-20T12:12:58;10.30;;;2.90;;
22780;SDS011;11557;50.884;4.322;2023-12-20T12:15:25;8.02;;;2.25;;
22780;SDS011;11557;50.884;4.322;2023-12-20T12:17:54;14.82;;;2.13;;
22780;SDS011;11557;50.884;4.322;2023-12-20T12:20:20;14.10;;;3.30;;
22780;SDS011;11557;50.884;4.322;2023-12-20T12:22:56;14.13;;;3.00;;
22780;SDS011;11557;50.884;4.322;2023-12-20T12:25:23;15.73;;;2.97;;
22780;SDS011;11557;50.884;4.322;2023-12-20T12:27:49;15.98;;;2.78;;
22780;SDS011;11557;50.884;4.322;2023-12-20T12:30:16;14.88;;;3.28;;
22780;SDS011;11557;50.884;4.322;2023-12-20T12:32:43;17.65;;;2.58;;
22780;SDS011;11557;50.884;4.322;2023-12-20T12:35:09;14.77;;;2.78;;
22780;SDS011;11557;50.884;4.322;2023-12-20T12:37:37;14.63;;;2.83;;
22780;SDS011;11557;50.884;4.322;2023-12-20T12:40:05;14.38;;;2.60;;
22780;SDS011;11557;50.884;4.322;2023-12-20T12:42:32;13.93;;;3.08;;
22780;SDS011;11557;50.884;4.322;2023-12-20T12:44:57;16.08;;;2.35;;
22780;SDS011;11557;50.884;4.322;2023-12-20T12:47:23;13.32;;;3.03;;
22780;SDS011;11557;50.884;4.322;2023-12-20T12:49:49;13.77;;;2.80;;
22780;SDS011;11557;50.884;4.322;2023-12-20T12:52:18;12.32;;;2.85;;
22780;SDS011;11557;50.884;4.322;2023-12-20T12:54:43;12.60;;;2.83;;
22780;SDS011;11557;50.884;4.322;2023-12-20T12:57:10;11.23;;;2.42;;
22780;SDS011;11557;50.884;4.322;2023-12-20T12:59:36;13.27;;;2.58;;
22780;SDS011;11557;50.884;4.322;2023-12-20T13:02:02;14.52;;;2.80;;
22780;SDS011;11557;50.884;4.322;2023-12-20T13:04:27;12.73;;;2.47;;
22780;SDS011;11557;50.884;4.322;2023-12-20T13:06:53;17.95;;;3.22;;
22780;SDS011;11557;50.884;4.322;2023-12-20T13:09:19;17.15;;;2.85;;
22780;SDS011;11557;50.884;4.322;2023-12-20T13:11:45;13.30;;;2.33;;
22780;SDS011;11557;50.884;4.322;2023-12-20T13:14:11;20.63;;;3.00;;
22780;SDS011;11557;50.884;4.322;2023-12-20T13:16:40;14.57;;;2.97;;
22780;SDS011;11557;50.884;4.322;2023-12-20T13:19:06;18.90;;;2.63;;
22780;SDS011;11557;50.884;4.322;2023-12-20T13:21:32;11.98;;;2.80;;
22780;SDS011;11557;50.884;4.322;2023-12-20T13:23:57;10.70;;;3.33;;
22780;SDS011;11557;50.884;4.322;2023-12-20T13:26:23;16.40;;;2.70;;
22780;SDS011;11557;50.884;4.322;2023-12-20T13:28:49;19.65;;;3.25;;
22780;SDS011;11557;50.884;4.322;2023-12-20T13:31:14;12.10;;;2.72;;
22780;SDS011;11557;50.884;4.322;2023-12-20T13:33:40;12.18;;;2.83;;
22780;SDS011;11557;50.884;4.322;2023-12-20T13:36:06;15.10;;;2.25;;
22780;SDS011;11557;50.884;4.322;2023-12-20T13:38:32;20.65;;;3.15;;
22780;SDS011;11557;50.884;4.322;2023-12-20T13:40:57;12.13;;;2.70;;
22780;SDS011;11557;50.884;4.322;2023-12-20T13:43:24;11.32;;;2.65;;
22780;SDS011;11557;50.884;4.322;2023-12-20T13:45:50;17.80;;;3.17;;
22780;SDS011;11557;50.884;4.322;2023-12-20T13:48:16;15.43;;;3.35;;
22780;SDS011;11557;50.884;4.322;2023-12-20T13:50:42;14.73;;;3.25;;
22780;SDS011;11557;50.884;4.322;2023-12-20T13:53:07;10.13;;;2.85;;
22780;SDS011;11557;50.884;4.322;2023-12-20T13:55:33;15.88;;;3.20;;
22780;SDS011;11557;50.884;4.322;2023-12-20T13:57:58;15.20;;;3.05;;
22780;SDS011;11557;50.884;4.322;2023-12-20T14:00:24;13.38;;;2.38;;
22780;SDS011;11557;50.884;4.322;2023-12-20T14:02:50;18.65;;;3.42;;
22780;SDS011;11557;50.884;4.322;2023-12-20T14:05:16;15.90;;;3.05;;
22780;SDS011;11557;50.884;4.322;2023-12-20T14:07:45;17.23;;;3.47;;
22780;SDS011;11557;50.884;4.322;2023-12-20T14:10:11;19.55;;;3.30;;
22780;SDS011;11557;50.884;4.322;2023-12-20T14:12:38;18.65;;;3.47;;
22780;SDS011;11557;50.884;4.322;2023-12-20T14:15:04;17.02;;;3.28;;
22780;SDS011;11557;50.884;4.322;2023-12-20T14:17:34;13.10;;;2.63;;
22780;SDS011;11557;50.884;4.322;2023-12-20T14:20:00;18.10;;;3.22;;
22780;SDS011;11557;50.884;4.322;2023-12-20T14:22:25;14.18;;;3.40;;
22780;SDS011;11557;50.884;4.322;2023-12-20T14:24:51;18.70;;;2.95;;
22780;SDS011;11557;50.884;4.322;2023-12-20T14:27:17;15.05;;;3.25;;
22780;SDS011;11557;50.884;4.322;2023-12-20T14:29:48;12.48;;;3.10;;
22780;SDS011;11557;50.884;4.322;2023-12-20T14:32:14;18.40;;;3.03;;